Alexandria, New York
Current Conditions -  °F | °C
As of 1:58 PM on Sunday 21 Dec 2014 (Local Time) from KGTB Reporting Station
Broken Clouds Broken Clouds  
Wind Chill: -1°   Ceiling: 3200
Heat Index: -1°   Visibility: 9mi
Dew Point: -7°   Wind: 2mph
Humidity: 62%   Direction: 60°ENE
Pressure: 30.26"   Gusts: NA
Location:  44.3057°N, 75.9374°W
Report Text: KGTB 211858Z AUTO 06002KT 9SM SCT020 BKN032 BKN080 M01/M07 A3026 RMK AO2 SLP257 T10061071
Loading
Personal Weather Stations






























Interactive Weather Map New forecast layout! Learn more

10-Day Weather Forecast

Advertisements
Track Severe Weather on mobile